Metar z połowy godziny Komunikat METAR ze strony awiacja.imgw.pl Metar G30 EPIR METAR EPIR 170900Z 13010KT 9999 FEW040 25/15 Q1018 RMK 250 053 2/2 =